createdAt,value
2016-07-24T00:01:10.741Z,18.6
2016-07-24T00:16:15.690Z,18.5
2016-07-24T00:31:17.067Z,18.5
2016-07-24T00:46:10.770Z,18.5
2016-07-24T01:01:21.990Z,18.4
2016-07-24T01:16:15.389Z,18.4
2016-07-24T01:31:15.739Z,18.4
2016-07-24T01:46:21.969Z,18.4
2016-07-24T02:01:23.676Z,18.3
2016-07-24T02:16:10.822Z,18.2
2016-07-24T02:31:16.938Z,18.2
2016-07-24T02:46:10.840Z,18.1
2016-07-24T03:01:23.811Z,18.1
2016-07-24T03:16:15.799Z,18
2016-07-24T03:31:15.841Z,18
2016-07-24T03:46:10.912Z,17.9
2016-07-24T04:01:15.930Z,17.8
2016-07-24T04:16:14.958Z,17.8
2016-07-24T04:31:15.500Z,17.8
2016-07-24T04:46:13.863Z,17.9
2016-07-24T05:01:15.520Z,17.9
2016-07-24T05:16:13.039Z,18
2016-07-24T05:31:26.262Z,18.1
2016-07-24T05:46:19.671Z,18.2
2016-07-24T06:01:15.546Z,18.6
2016-07-24T06:16:10.949Z,18.8
2016-07-24T06:31:21.179Z,18.8
2016-07-24T06:46:17.225Z,18.9
2016-07-24T07:01:15.561Z,19.1
2016-07-24T07:16:10.985Z,19.6
2016-07-24T07:31:10.983Z,21
2016-07-24T07:46:10.988Z,22.2
2016-07-24T08:01:11.062Z,23.8
2016-07-24T08:16:11.022Z,25.9
2016-07-24T08:31:11.022Z,29.7
2016-07-24T08:46:11.037Z,39.2
2016-07-24T09:01:11.093Z,225.5
2016-07-24T09:16:24.226Z,225.5
2016-07-24T09:31:13.049Z,225.5
2016-07-24T09:46:19.302Z,225.5
2016-07-24T10:01:11.132Z,225.5
2016-07-24T10:16:13.182Z,225.5
2016-07-24T10:31:11.089Z,225.5
2016-07-24T10:46:11.105Z,225.5
2016-07-24T11:01:15.266Z,225.5
2016-07-24T11:16:16.036Z,225.5
2016-07-24T11:31:11.966Z,225.5
2016-07-24T11:46:11.116Z,225.5
2016-07-24T12:01:13.231Z,225.5
2016-07-24T12:16:11.194Z,225.5
2016-07-24T12:31:11.145Z,225.5
2016-07-24T12:46:11.150Z,225.5
2016-07-24T13:01:15.277Z,225.5
2016-07-24T13:16:13.323Z,225.5
2016-07-24T13:31:11.182Z,225.5
2016-07-24T13:46:11.188Z,225.5
2016-07-24T14:01:11.191Z,225.5
2016-07-24T14:16:15.364Z,225.5
2016-07-24T14:31:21.534Z,225.5
2016-07-24T14:46:13.339Z,225.5
2016-07-24T15:01:13.335Z,225.5
2016-07-24T15:16:11.234Z,225.5
2016-07-24T15:31:14.206Z,225.5
2016-07-24T15:46:11.257Z,225.5
2016-07-24T16:01:13.366Z,225.5
2016-07-24T16:16:15.852Z,225.5
2016-07-24T16:31:11.290Z,225.5
2016-07-24T16:46:11.339Z,225.5
2016-07-24T17:01:19.525Z,225.5
2016-07-24T17:16:11.325Z,225.5
2016-07-24T17:31:15.921Z,225.5
2016-07-24T17:46:16.319Z,225.5
2016-07-24T18:01:19.967Z,225.5
2016-07-24T18:16:16.401Z,225.5
2016-07-24T18:31:17.673Z,225.5
2016-07-24T18:46:13.507Z,225.5
2016-07-24T19:01:11.421Z,24.6
2016-07-24T19:16:11.397Z,23.7
2016-07-24T19:31:11.403Z,23.3
2016-07-24T19:46:15.995Z,22.9
2016-07-24T20:01:16.393Z,22.6
2016-07-24T20:16:16.003Z,22.4
2016-07-24T20:31:16.062Z,22.2
2016-07-24T20:46:17.635Z,22
2016-07-24T21:01:22.822Z,21.9
2016-07-24T21:16:24.246Z,22.3
2016-07-24T21:31:11.447Z,21.6
2016-07-24T21:46:11.445Z,21
2016-07-24T22:01:11.452Z,20.7
2016-07-24T22:16:11.505Z,20.5
2016-07-24T22:31:16.061Z,20.3
2016-07-24T22:46:25.698Z,20.8
2016-07-24T23:01:17.579Z,225.5
2016-07-24T23:16:24.778Z,225.5
2016-07-24T23:31:16.528Z,225.5
2016-07-24T23:46:16.090Z,225.5
